Time;durP1;ratioP1;P1;durP2;ratioP2;P2;SDS_P1;SDS_P2;PMS_P1;PMS_P2;Temp;Humidity;BMP_temperature;BMP_pressure;BME280_temperature;BME280_humidity;BME280_pressure;Samples;Min_cycle;Max_cycle;Signal;HPM_P1;HPM_P2
2022/01/30 00:00:31;;;;;;;16.30;2.72;;;7.30;85.00;;;;;;2097214;28;20040;-90
2022/01/30 00:01:32;;;;;;;14.75;2.35;;;7.30;84.90;;;;;;2086006;28;20037;-91
2022/01/30 00:02:32;;;;;;;14.80;2.75;;;7.30;85.00;;;;;;2090443;28;20041;-91
2022/01/30 00:03:33;;;;;;;15.57;3.00;;;7.30;85.00;;;;;;2088288;28;20025;-91
2022/01/30 00:04:33;;;;;;;11.52;2.67;;;7.30;85.00;;;;;;2072482;28;20038;-91
2022/01/30 00:05:34;;;;;;;9.82;2.25;;;7.30;85.00;;;;;;2089090;28;20066;-91
2022/01/30 00:06:35;;;;;;;9.48;2.33;;;7.30;85.20;;;;;;2087737;28;20038;-91
2022/01/30 00:07:36;;;;;;;10.82;2.30;;;7.30;85.80;;;;;;2072560;28;20085;-91
2022/01/30 00:08:36;;;;;;;10.32;2.00;;;7.30;85.20;;;;;;2078504;28;20575;-90
2022/01/30 00:09:37;;;;;;;10.20;2.55;;;7.30;85.20;;;;;;2082214;28;20168;-91
2022/01/30 00:10:40;;;;;;;12.50;2.35;;;7.30;85.30;;;;;;2085304;28;20059;-90
2022/01/30 00:11:43;;;;;;;12.70;2.35;;;7.30;85.40;;;;;;2079696;28;20042;-91
2022/01/30 00:13:45;;;;;;;11.02;1.98;;;7.30;85.60;;;;;;2088922;28;20052;-91
2022/01/30 00:14:52;;;;;;;11.75;2.47;;;7.30;85.50;;;;;;2091379;28;20036;-91
2022/01/30 00:15:54;;;;;;;11.55;2.63;;;7.20;85.60;;;;;;2090276;28;20157;-91
2022/01/30 00:17:04;;;;;;;14.32;2.58;;;7.20;85.70;;;;;;2100578;28;20040;-91
2022/01/30 00:18:35;;;;;;;18.20;2.95;;;7.20;85.60;;;;;;2099700;28;20025;-91
2022/01/30 00:19:36;;;;;;;14.70;3.10;;;7.20;85.20;;;;;;2098750;28;20327;-91
2022/01/30 00:20:39;;;;;;;15.10;3.00;;;7.20;85.30;;;;;;2099294;28;20385;-91
2022/01/30 00:21:46;;;;;;;14.75;2.97;;;7.20;85.30;;;;;;2097437;28;20041;-91
2022/01/30 00:23:58;;;;;;;13.90;2.65;;;7.10;85.30;;;;;;2098873;28;20041;-91
2022/01/30 00:25:03;;;;;;;12.98;2.95;;;7.20;85.40;;;;;;2105029;28;20034;-90
2022/01/30 00:26:07;;;;;;;12.77;2.72;;;7.10;85.40;;;;;;2090342;28;20108;-91
2022/01/30 00:27:14;;;;;;;13.43;2.92;;;7.10;85.40;;;;;;2091509;28;20087;-91
2022/01/30 00:28:17;;;;;;;11.52;2.70;;;7.10;85.50;;;;;;2089266;28;20045;-90
2022/01/30 00:29:18;;;;;;;11.82;2.53;;;7.10;85.70;;;;;;2089785;28;20033;-91
2022/01/30 00:30:18;;;;;;;12.55;2.65;;;7.10;85.70;;;;;;2082080;28;20044;-91
2022/01/30 00:31:19;;;;;;;12.23;2.78;;;7.10;85.70;;;;;;2081775;28;20431;-90
2022/01/30 00:32:20;;;;;;;9.77;2.30;;;7.10;85.70;;;;;;2097778;28;20406;-90
2022/01/30 00:33:21;;;;;;;9.73;2.47;;;7.10;85.80;;;;;;2097048;28;20047;-90
2022/01/30 00:34:22;;;;;;;12.63;2.95;;;7.10;85.80;;;;;;2093782;28;20033;-91
2022/01/30 00:35:22;;;;;;;11.82;2.50;;;7.10;85.90;;;;;;2092841;28;20089;-90
2022/01/30 00:36:23;;;;;;;7.93;1.73;;;7.00;85.80;;;;;;2089728;28;20076;-91
2022/01/30 00:37:24;;;;;;;10.07;2.17;;;7.00;85.90;;;;;;2089977;28;20515;-91
2022/01/30 00:38:26;;;;;;;9.80;2.25;;;7.00;85.90;;;;;;2089740;28;20040;-91
2022/01/30 00:39:26;;;;;;;13.80;2.78;;;7.00;86.00;;;;;;2082250;28;20049;-91
2022/01/30 00:40:27;;;;;;;9.82;2.17;;;7.00;86.00;;;;;;2089589;28;20135;-91
2022/01/30 00:41:28;;;;;;;11.13;2.13;;;7.00;86.00;;;;;;2089465;28;20074;-91
2022/01/30 00:42:29;;;;;;;10.32;2.13;;;6.90;86.00;;;;;;2093266;28;20057;-91
2022/01/30 00:43:29;;;;;;;9.73;2.05;;;7.00;86.10;;;;;;2090138;28;20426;-91
2022/01/30 00:44:30;;;;;;;10.73;2.13;;;7.00;86.20;;;;;;2097979;28;20097;-90
2022/01/30 00:45:31;;;;;;;12.73;2.20;;;7.00;86.10;;;;;;2094162;28;20041;-91
2022/01/30 00:46:32;;;;;;;13.75;2.42;;;6.90;86.10;;;;;;2077770;28;20586;-91
2022/01/30 00:47:33;;;;;;;11.00;2.28;;;6.90;86.20;;;;;;2069586;28;20034;-91
2022/01/30 00:48:33;;;;;;;14.55;2.42;;;6.90;86.10;;;;;;2077324;28;20034;-91
2022/01/30 00:49:34;;;;;;;12.43;2.50;;;6.90;86.10;;;;;;2089625;28;20032;-91
2022/01/30 00:50:35;;;;;;;11.70;2.10;;;6.90;86.20;;;;;;2082043;28;20045;-90
2022/01/30 00:51:37;;;;;;;11.88;2.60;;;6.90;86.10;;;;;;2085279;28;20064;-91
2022/01/30 00:52:38;;;;;;;9.50;1.95;;;6.90;86.10;;;;;;2073656;28;20042;-91
2022/01/30 00:53:38;;;;;;;12.50;2.05;;;6.90;86.10;;;;;;2079544;28;20068;-91
2022/01/30 00:54:39;;;;;;;11.45;2.50;;;6.90;86.10;;;;;;2075791;28;20038;-90
2022/01/30 00:55:40;;;;;;;13.20;2.63;;;6.90;86.10;;;;;;2065848;28;20091;-91
2022/01/30 00:56:41;;;;;;;11.70;2.58;;;7.00;86.00;;;;;;2073694;28;20072;-91
2022/01/30 00:57:42;;;;;;;9.25;2.20;;;6.90;86.60;;;;;;2087528;28;20399;-90
2022/01/30 00:58:42;;;;;;;12.35;2.53;;;6.90;85.90;;;;;;2098291;28;20041;-91
2022/01/30 00:59:43;;;;;;;13.73;2.55;;;6.90;86.60;;;;;;2106369;28;20525;-91
2022/01/30 01:00:44;;;;;;;10.70;2.17;;;6.90;86.10;;;;;;2088761;28;20175;-90
2022/01/30 01:01:44;;;;;;;9.73;2.10;;;6.90;86.20;;;;;;2073089;28;20034;-91
2022/01/30 01:02:46;;;;;;;11.95;2.30;;;6.90;86.20;;;;;;2089911;28;20041;-91
2022/01/30 01:03:46;;;;;;;11.75;2.25;;;6.90;86.20;;;;;;2097206;28;20186;-91
2022/01/30 01:04:48;;;;;;;11.73;2.63;;;6.90;86.00;;;;;;2075982;28;20539;-91
2022/01/30 01:05:49;;;;;;;14.80;2.83;;;6.90;85.90;;;;;;2081690;28;20061;-91
2022/01/30 01:06:50;;;;;;;13.10;2.70;;;6.90;86.30;;;;;;2080033;28;20040;-90
2022/01/30 01:07:54;;;;;;;12.23;2.60;;;6.90;85.80;;;;;;2089794;28;20033;-91
2022/01/30 01:09:01;;;;;;;9.57;2.10;;;6.90;85.80;;;;;;2096537;28;20041;-90
2022/01/30 01:10:09;;;;;;;10.68;2.28;;;6.90;85.80;;;;;;2085841;28;20079;-91
2022/01/30 01:23:58;;;;;;;10.30;2.38;;;7.00;85.50;;;;;;2089789;28;20037;-91
2022/01/30 01:24:58;;;;;;;11.55;2.53;;;7.00;85.50;;;;;;2105147;28;20029;-91
2022/01/30 01:26:00;;;;;;;11.63;3.03;;;7.00;85.50;;;;;;2088661;28;20049;-91
2022/01/30 01:27:01;;;;;;;11.25;2.30;;;7.00;85.30;;;;;;2073686;28;20030;-90
2022/01/30 01:28:02;;;;;;;14.38;2.35;;;7.00;85.40;;;;;;2081685;28;20045;-91
2022/01/30 01:29:04;;;;;;;10.90;1.95;;;7.00;85.20;;;;;;2097515;28;20036;-91
2022/01/30 01:30:05;;;;;;;8.95;1.98;;;7.00;85.20;;;;;;2088847;28;20079;-91
2022/01/30 01:31:06;;;;;;;14.00;2.10;;;7.00;85.30;;;;;;2081535;28;20080;-90
2022/01/30 01:32:07;;;;;;;10.07;2.10;;;7.00;85.10;;;;;;2080312;28;20083;-90
2022/01/30 01:33:07;;;;;;;13.40;2.35;;;7.00;85.10;;;;;;2072446;28;20037;-91
2022/01/30 01:35:09;;;;;;;9.40;1.90;;;7.10;84.90;;;;;;2095718;28;20132;-90
2022/01/30 01:36:09;;;;;;;9.20;1.92;;;7.00;84.90;;;;;;2089713;28;20060;-91
2022/01/30 01:37:12;;;;;;;9.52;2.38;;;7.10;85.00;;;;;;2100533;28;20041;-90
2022/01/30 01:38:14;;;;;;;9.02;1.98;;;7.10;84.90;;;;;;2089551;28;20034;-91
2022/01/30 01:39:15;;;;;;;9.40;1.98;;;7.10;84.80;;;;;;2089079;28;20048;-91
2022/01/30 01:40:17;;;;;;;8.88;1.90;;;7.10;84.90;;;;;;2089580;28;20060;-91
2022/01/30 01:41:20;;;;;;;9.48;1.83;;;7.10;84.70;;;;;;2089364;28;20227;-91
2022/01/30 01:42:23;;;;;;;8.95;2.00;;;7.10;84.60;;;;;;2100424;28;20499;-91
2022/01/30 01:43:25;;;;;;;8.07;1.77;;;7.10;84.70;;;;;;2086833;28;20029;-91
2022/01/30 01:44:44;;;;;;;8.15;1.50;;;7.10;84.90;;;;;;2076130;28;20038;-90
2022/01/30 01:45:48;;;;;;;8.20;1.80;;;7.10;85.00;;;;;;2086941;28;20036;-90
2022/01/30 01:46:49;;;;;;;7.18;1.75;;;7.10;85.10;;;;;;2094739;28;20045;-91
2022/01/30 01:47:50;;;;;;;7.75;1.60;;;7.10;85.20;;;;;;2090122;28;20036;-91
2022/01/30 01:48:53;;;;;;;7.05;1.60;;;7.10;85.10;;;;;;2082583;28;20033;-91
2022/01/30 01:49:54;;;;;;;6.07;1.25;;;7.00;85.20;;;;;;2088591;28;20467;-91
2022/01/30 01:51:04;;;;;;;7.18;1.50;;;7.00;85.40;;;;;;2083226;28;20042;-91
2022/01/30 01:53:15;;;;;;;7.80;1.38;;;7.00;85.30;;;;;;2097257;28;20396;-90
2022/01/30 01:54:16;;;;;;;10.63;1.73;;;7.00;85.40;;;;;;2088965;28;20048;-91
2022/01/30 01:55:17;;;;;;;8.13;1.80;;;6.90;85.50;;;;;;2078175;28;20049;-90
2022/01/30 01:56:19;;;;;;;10.48;1.80;;;6.90;85.40;;;;;;2081100;28;20435;-91
2022/01/30 01:57:20;;;;;;;8.60;1.58;;;6.90;85.60;;;;;;2073162;28;20081;-90
2022/01/30 01:58:24;;;;;;;7.53;1.75;;;6.90;85.70;;;;;;2081800;28;20120;-91
2022/01/30 01:59:25;;;;;;;8.82;1.83;;;6.80;85.60;;;;;;2089766;28;20037;-90
2022/01/30 02:00:26;;;;;;;5.60;1.30;;;6.80;85.80;;;;;;2084043;28;20057;-91
2022/01/30 02:01:28;;;;;;;6.97;1.45;;;6.80;85.90;;;;;;2073145;28;20042;-90
2022/01/30 02:02:29;;;;;;;7.95;1.50;;;6.80;86.00;;;;;;2081589;28;20084;-90
2022/01/30 02:03:30;;;;;;;9.05;1.75;;;6.80;86.10;;;;;;2083696;28;20029;-90
2022/01/30 02:04:30;;;;;;;9.63;1.67;;;6.80;86.10;;;;;;2089506;28;20044;-91
2022/01/30 02:05:34;;;;;;;9.18;1.80;;;6.70;86.10;;;;;;2081630;28;20041;-90
2022/01/30 02:06:35;;;;;;;6.93;1.75;;;6.70;86.20;;;;;;2072990;28;20133;-90
2022/01/30 02:08:40;;;;;;;10.90;2.25;;;6.70;86.30;;;;;;2074173;28;20050;-90
2022/01/30 02:09:10;;;;;;;5.35;1.30;;;6.70;86.40;;;;;;2085306;28;20038;-90
2022/01/30 02:10:20;;;;;;;8.18;1.65;;;6.70;86.50;;;;;;2082971;28;20044;-91
2022/01/30 02:12:43;;;;;;;9.23;1.60;;;6.60;86.60;;;;;;2073128;28;20480;-91
2022/01/30 02:14:01;;;;;;;7.43;1.27;;;6.60;86.60;;;;;;2077676;28;20076;-91
2022/01/30 02:24:14;;;;;;;7.95;2.03;;;6.70;86.70;;;;;;2087011;28;20087;-91
2022/01/30 02:26:41;;;;;;;6.43;1.52;;;6.80;86.70;;;;;;2082389;28;20082;-91
2022/01/30 02:27:42;;;;;;;8.13;1.60;;;6.70;86.70;;;;;;2081851;28;20125;-90
2022/01/30 02:28:43;;;;;;;8.70;1.63;;;6.80;86.80;;;;;;2083241;28;20033;-91
2022/01/30 02:29:44;;;;;;;7.43;1.70;;;6.70;86.80;;;;;;2089969;28;20131;-90
2022/01/30 02:30:53;;;;;;;9.27;1.60;;;6.80;86.80;;;;;;2085698;28;20029;-91
2022/01/30 02:31:57;;;;;;;8.82;1.73;;;6.80;86.90;;;;;;2090108;28;20033;-91
2022/01/30 02:32:58;;;;;;;12.38;2.05;;;6.80;86.90;;;;;;2090188;28;20048;-90
2022/01/30 02:33:59;;;;;;;12.02;2.45;;;6.80;86.80;;;;;;2088948;28;20030;-90
2022/01/30 02:34:59;;;;;;;9.88;1.85;;;6.80;86.80;;;;;;2090179;28;20056;-91
2022/01/30 02:36:01;;;;;;;9.95;1.85;;;6.80;86.90;;;;;;2081294;28;20068;-91
2022/01/30 02:37:02;;;;;;;8.07;1.67;;;6.80;86.90;;;;;;2059151;28;20045;-91
2022/01/30 02:38:02;;;;;;;8.60;1.80;;;6.80;87.00;;;;;;2074140;28;20038;-90
2022/01/30 02:39:03;;;;;;;10.20;1.90;;;6.80;87.10;;;;;;2089043;28;20025;-90
2022/01/30 02:40:09;;;;;;;8.10;1.63;;;6.80;87.10;;;;;;2072836;28;20093;-91
2022/01/30 02:41:09;;;;;;;11.85;1.80;;;6.70;87.20;;;;;;2060097;28;20086;-90
2022/01/30 02:42:17;;;;;;;9.15;2.40;;;6.70;87.20;;;;;;2075896;28;20100;-91
2022/01/30 02:43:23;;;;;;;8.38;1.70;;;6.70;87.30;;;;;;2074070;28;20412;-90
2022/01/30 02:44:34;;;;;;;6.85;1.50;;;6.70;87.40;;;;;;2073654;28;20191;-90
2022/01/30 02:45:38;;;;;;;6.85;1.40;;;6.60;87.40;;;;;;2069994;28;20042;-90
2022/01/30 02:46:43;;;;;;;7.07;1.38;;;6.60;87.50;;;;;;2056624;28;20513;-91
2022/01/30 02:47:58;;;;;;;7.90;1.25;;;6.60;88.20;;;;;;2068007;28;20053;-90
2022/01/30 02:49:12;;;;;;;8.50;1.67;;;6.60;87.70;;;;;;2089071;28;20048;-90
2022/01/30 02:50:19;;;;;;;9.10;1.45;;;6.50;87.70;;;;;;2080947;28;20911;-90
2022/01/30 02:51:22;;;;;;;8.45;2.05;;;6.50;87.80;;;;;;2089174;28;20037;-90
2022/01/30 02:52:23;;;;;;;7.22;1.30;;;6.50;87.80;;;;;;2079968;28;20041;-91
2022/01/30 02:53:30;;;;;;;8.60;1.70;;;6.50;87.80;;;;;;2070733;28;20595;-90
2022/01/30 02:54:31;;;;;;;7.38;1.48;;;6.50;87.90;;;;;;2082076;28;20037;-90
2022/01/30 02:55:32;;;;;;;6.47;1.40;;;6.40;87.90;;;;;;2089286;28;20498;-90
2022/01/30 02:56:34;;;;;;;9.27;1.27;;;6.40;88.00;;;;;;2093148;28;20048;-89
2022/01/30 02:57:35;;;;;;;6.45;1.30;;;6.40;88.60;;;;;;2080208;28;20551;-91
2022/01/30 02:58:36;;;;;;;7.78;1.42;;;6.40;88.10;;;;;;2088258;28;20048;-90
2022/01/30 02:59:37;;;;;;;9.63;2.20;;;6.40;88.20;;;;;;2075509;28;20159;-91
2022/01/30 03:00:38;;;;;;;8.13;1.30;;;6.30;88.10;;;;;;2087568;28;20475;-90
2022/01/30 03:01:39;;;;;;;4.55;1.33;;;6.30;88.20;;;;;;2098007;28;20513;-91
2022/01/30 03:02:39;;;;;;;8.77;1.83;;;6.30;88.20;;;;;;2088172;28;20030;-90
2022/01/30 03:03:40;;;;;;;4.70;1.13;;;6.30;88.20;;;;;;2072897;28;20038;-90
2022/01/30 03:04:41;;;;;;;7.18;1.30;;;6.30;88.30;;;;;;2081400;28;20495;-90
2022/01/30 03:05:41;;;;;;;6.13;1.10;;;6.30;88.30;;;;;;2076239;28;20089;-91
2022/01/30 03:06:42;;;;;;;6.72;1.27;;;6.30;88.40;;;;;;2073243;28;20042;-90
2022/01/30 03:07:43;;;;;;;5.47;1.25;;;6.30;88.50;;;;;;2077276;28;20071;-90
2022/01/30 03:08:43;;;;;;;8.80;1.35;;;6.30;89.10;;;;;;2089579;28;20079;-90
2022/01/30 03:09:44;;;;;;;7.30;1.48;;;6.30;88.60;;;;;;2081396;28;20042;-90
2022/01/30 03:10:45;;;;;;;9.25;1.60;;;6.30;88.60;;;;;;2079757;28;20514;-91
2022/01/30 03:11:45;;;;;;;4.80;0.90;;;6.30;88.70;;;;;;2072629;28;20038;-90
2022/01/30 03:12:46;;;;;;;7.90;1.38;;;6.30;88.70;;;;;;2064964;28;20448;-91
2022/01/30 03:13:47;;;;;;;7.63;1.23;;;6.20;88.70;;;;;;2073973;28;20408;-91
2022/01/30 03:14:47;;;;;;;8.25;1.48;;;6.20;88.70;;;;;;2077026;28;20539;-91
2022/01/30 03:15:48;;;;;;;5.30;1.70;;;6.20;89.30;;;;;;2081265;28;20064;-90
2022/01/30 03:16:48;;;;;;;10.18;1.20;;;6.20;88.80;;;;;;2097778;28;20035;-91
2022/01/30 03:17:49;;;;;;;6.10;1.10;;;6.20;88.80;;;;;;2098845;28;20395;-90
2022/01/30 03:18:51;;;;;;;8.30;1.27;;;6.20;88.80;;;;;;2098689;28;20078;-90
2022/01/30 03:19:52;;;;;;;4.50;0.90;;;6.20;88.80;;;;;;2099194;28;20024;-90
2022/01/30 03:20:53;;;;;;;11.57;1.90;;;6.20;88.80;;;;;;2092489;28;20052;-90
2022/01/30 03:21:53;;;;;;;10.50;1.83;;;6.20;88.40;;;;;;2090934;28;20048;-90
2022/01/30 03:22:54;;;;;;;9.73;2.08;;;6.20;88.50;;;;;;2094891;28;20037;-90
2022/01/30 03:23:55;;;;;;;8.05;1.55;;;6.20;88.50;;;;;;2095306;28;20041;-90
2022/01/30 03:24:55;;;;;;;8.75;1.55;;;6.20;88.50;;;;;;2095413;28;20202;-90
2022/01/30 03:25:59;;;;;;;10.63;1.50;;;6.20;88.50;;;;;;2078372;28;20065;-91
2022/01/30 03:26:59;;;;;;;8.23;1.58;;;6.20;88.40;;;;;;2074831;28;20034;-90
2022/01/30 03:28:01;;;;;;;6.15;1.20;;;6.20;88.40;;;;;;2080036;28;20026;-90
2022/01/30 03:29:05;;;;;;;8.85;1.48;;;6.20;88.40;;;;;;2077349;28;20034;-90
2022/01/30 03:30:07;;;;;;;8.35;1.30;;;6.20;88.40;;;;;;2083388;28;20037;-90
2022/01/30 03:31:10;;;;;;;7.90;1.70;;;6.10;88.40;;;;;;2088699;28;20067;-90
2022/01/30 03:32:11;;;;;;;7.13;1.40;;;6.10;88.40;;;;;;2079833;28;20061;-90
2022/01/30 03:33:11;;;;;;;7.07;1.42;;;6.10;88.50;;;;;;2086354;28;20037;-90
2022/01/30 03:34:12;;;;;;;6.95;1.40;;;6.10;88.50;;;;;;2104013;28;20040;-90
2022/01/30 03:35:13;;;;;;;4.88;1.35;;;6.10;88.60;;;;;;2101753;28;20033;-91
2022/01/30 03:36:14;;;;;;;8.23;1.75;;;6.10;88.60;;;;;;2093859;28;20044;-89
2022/01/30 03:37:14;;;;;;;6.32;1.02;;;6.10;88.70;;;;;;2085280;28;20060;-90
2022/01/30 03:38:15;;;;;;;5.57;1.30;;;6.10;88.70;;;;;;2097627;28;20506;-90
2022/01/30 03:39:16;;;;;;;7.05;1.20;;;6.10;88.70;;;;;;2098658;28;20140;-91
2022/01/30 03:40:17;;;;;;;5.53;1.05;;;6.00;88.70;;;;;;2086189;28;20068;-88
2022/01/30 03:41:18;;;;;;;7.07;1.60;;;6.10;88.80;;;;;;2100928;28;20063;-90
2022/01/30 03:42:18;;;;;;;7.80;1.52;;;6.00;88.80;;;;;;2098705;28;20063;-90
2022/01/30 03:43:19;;;;;;;5.18;1.10;;;6.00;88.70;;;;;;2082218;28;20404;-90
2022/01/30 03:44:20;;;;;;;3.97;0.95;;;6.00;88.70;;;;;;2081928;28;20076;-90
2022/01/30 03:45:21;;;;;;;4.90;1.17;;;6.00;88.70;;;;;;2081940;28;20037;-90
2022/01/30 03:46:23;;;;;;;5.63;1.25;;;6.00;88.70;;;;;;2089287;28;20136;-89
2022/01/30 03:47:26;;;;;;;7.07;1.20;;;6.00;88.70;;;;;;2096100;28;20024;-90
2022/01/30 03:48:26;;;;;;;6.55;1.30;;;6.00;88.70;;;;;;2092249;28;20037;-90
2022/01/30 03:49:27;;;;;;;6.60;1.33;;;6.00;88.70;;;;;;2098708;28;20064;-90
2022/01/30 03:50:28;;;;;;;4.43;1.20;;;6.00;88.60;;;;;;2082182;28;20098;-89
2022/01/30 03:51:29;;;;;;;10.05;1.35;;;6.00;88.60;;;;;;2074198;28;20404;-90
2022/01/30 03:52:29;;;;;;;4.80;1.17;;;6.00;88.60;;;;;;2085659;28;20068;-90
2022/01/30 03:53:33;;;;;;;5.18;0.95;;;6.00;88.60;;;;;;2092025;28;20037;-89
2022/01/30 03:54:34;;;;;;;6.63;1.20;;;6.00;88.70;;;;;;2098771;28;20028;-90
2022/01/30 03:55:35;;;;;;;7.03;1.33;;;6.00;88.60;;;;;;2090140;28;20475;-90
2022/01/30 03:56:35;;;;;;;5.07;1.08;;;6.00;88.60;;;;;;2086736;28;20040;-90
2022/01/30 03:57:36;;;;;;;7.72;1.40;;;6.00;88.60;;;;;;2081466;28;20046;-90
2022/01/30 03:58:37;;;;;;;4.65;1.02;;;5.90;88.60;;;;;;2082343;28;20562;-90
2022/01/30 03:59:38;;;;;;;5.72;1.15;;;5.90;88.50;;;;;;2082035;28;20474;-90
2022/01/30 04:00:38;;;;;;;8.70;1.42;;;5.90;88.60;;;;;;2083412;28;20037;-91
2022/01/30 04:01:39;;;;;;;4.68;1.00;;;5.90;88.60;;;;;;2085668;28;20045;-90
2022/01/30 04:02:40;;;;;;;5.68;1.10;;;5.90;88.60;;;;;;2083411;28;20123;-90
2022/01/30 04:03:40;;;;;;;5.93;1.10;;;5.90;88.60;;;;;;2088287;28;20036;-89
2022/01/30 04:04:41;;;;;;;8.35;1.20;;;5.90;88.60;;;;;;2082184;28;20111;-88
2022/01/30 04:05:42;;;;;;;5.15;1.17;;;5.90;88.60;;;;;;2073704;28;20092;-90
2022/01/30 04:06:43;;;;;;;6.35;0.95;;;5.90;88.60;;;;;;2073886;28;20508;-89
2022/01/30 04:07:45;;;;;;;4.97;1.23;;;5.90;88.60;;;;;;2080465;28;20403;-89
2022/01/30 04:08:46;;;;;;;7.35;1.00;;;5.90;88.70;;;;;;2090325;28;20037;-89
2022/01/30 04:09:47;;;;;;;6.10;1.20;;;5.90;88.80;;;;;;2074118;28;20034;-89
2022/01/30 04:10:48;;;;;;;4.25;1.00;;;5.90;88.80;;;;;;2080031;28;20057;-90
2022/01/30 04:11:49;;;;;;;6.47;0.98;;;5.80;88.70;;;;;;2090571;28;20456;-90
2022/01/30 04:12:49;;;;;;;5.30;1.15;;;5.90;88.80;;;;;;2089785;28;20050;-90
2022/01/30 04:13:50;;;;;;;7.57;1.27;;;5.80;88.60;;;;;;2096505;28;20128;-90
2022/01/30 04:14:51;;;;;;;6.93;1.73;;;5.90;88.60;;;;;;2099748;28;20043;-90
2022/01/30 04:15:52;;;;;;;5.05;1.20;;;5.80;88.50;;;;;;2099253;28;20394;-90
2022/01/30 04:16:53;;;;;;;6.00;1.30;;;5.90;88.60;;;;;;2089700;28;20041;-90
2022/01/30 04:17:53;;;;;;;6.47;1.27;;;5.80;88.50;;;;;;2074227;28;20129;-90
2022/01/30 04:18:54;;;;;;;7.13;1.10;;;5.90;88.70;;;;;;2090288;28;20135;-90
2022/01/30 04:19:55;;;;;;;9.35;1.27;;;5.90;88.50;;;;;;2101522;28;20032;-90
2022/01/30 04:20:56;;;;;;;6.93;1.55;;;5.90;88.50;;;;;;2090445;28;20036;-90
2022/01/30 04:21:56;;;;;;;6.70;1.00;;;5.90;88.40;;;;;;2095470;28;20450;-90
2022/01/30 04:22:57;;;;;;;8.18;1.67;;;5.90;88.30;;;;;;2098098;28;20040;-90
2022/01/30 04:23:58;;;;;;;7.03;1.40;;;5.90;88.30;;;;;;2098599;28;20061;-90
2022/01/30 04:24:59;;;;;;;4.28;1.00;;;6.00;88.30;;;;;;2098829;28;20040;-91
2022/01/30 04:25:59;;;;;;;5.88;1.23;;;5.90;88.20;;;;;;2099193;28;20036;-90
2022/01/30 04:27:00;;;;;;;5.15;1.10;;;5.90;88.20;;;;;;2081702;28;20049;-90
2022/01/30 04:28:01;;;;;;;6.50;1.20;;;5.90;88.20;;;;;;2081287;28;20559;-90
2022/01/30 04:29:02;;;;;;;6.45;1.23;;;5.90;88.20;;;;;;2081642;28;20033;-89
2022/01/30 04:30:05;;;;;;;6.43;1.13;;;5.90;88.20;;;;;;2081677;28;20072;-90
2022/01/30 04:31:06;;;;;;;7.78;1.38;;;6.00;88.30;;;;;;2090762;28;20040;-90
2022/01/30 04:32:08;;;;;;;8.57;1.38;;;5.90;88.20;;;;;;2088641;28;20037;-90
2022/01/30 04:33:09;;;;;;;4.95;0.90;;;6.00;88.30;;;;;;2094160;28;20113;-89
2022/01/30 04:34:10;;;;;;;6.80;1.70;;;6.00;88.30;;;;;;2096974;28;20239;-90
2022/01/30 04:35:17;;;;;;;6.75;1.20;;;6.00;88.30;;;;;;2096774;28;20186;-90
2022/01/30 04:36:24;;;;;;;8.50;1.30;;;6.00;88.20;;;;;;2089506;28;20088;-90
2022/01/30 04:37:48;;;;;;;5.65;1.20;;;5.90;88.20;;;;;;2079199;28;20526;-90
2022/01/30 04:53:14;;;;;;;8.60;1.38;;;6.00;87.70;;;;;;2101163;28;20044;-89
2022/01/30 04:59:41;;;;;;;7.10;1.13;;;6.00;87.70;;;;;;2078015;28;20049;-90
2022/01/30 05:03:39;;;;;;;6.40;1.10;;;6.00;87.60;;;;;;2088729;28;20132;-90
2022/01/30 05:08:03;;;;;;;6.40;1.20;;;6.00;87.80;;;;;;2101611;28;20063;-89
2022/01/30 05:09:04;;;;;;;5.30;1.05;;;6.00;87.70;;;;;;2098485;28;20044;-89
2022/01/30 05:10:05;;;;;;;5.05;1.10;;;6.00;87.70;;;;;;2089820;28;20411;-90
2022/01/30 05:11:08;;;;;;;6.10;1.40;;;6.00;87.80;;;;;;2097160;28;20040;-90
2022/01/30 05:12:10;;;;;;;6.50;1.20;;;6.00;87.80;;;;;;2098455;28;20032;-91
2022/01/30 05:13:16;;;;;;;5.55;1.23;;;6.00;87.80;;;;;;2095077;28;20071;-90
2022/01/30 05:14:20;;;;;;;6.05;1.20;;;6.00;87.80;;;;;;2098988;28;20123;-90
2022/01/30 05:15:21;;;;;;;6.18;1.23;;;6.00;87.80;;;;;;2098594;28;20082;-90
2022/01/30 05:16:23;;;;;;;5.88;1.00;;;6.00;87.80;;;;;;2083552;28;20033;-90
2022/01/30 05:17:24;;;;;;;6.45;1.27;;;6.00;87.80;;;;;;2080925;28;20053;-90
2022/01/30 05:18:27;;;;;;;7.70;1.50;;;6.00;87.80;;;;;;2096780;28;20037;-90
2022/01/30 05:19:28;;;;;;;7.07;1.17;;;6.00;88.10;;;;;;2094071;28;20028;-90
2022/01/30 05:20:29;;;;;;;9.15;1.77;;;6.00;87.80;;;;;;2099106;28;20482;-90
2022/01/30 05:21:30;;;;;;;8.25;1.77;;;6.00;87.50;;;;;;2089311;28;20043;-89
2022/01/30 05:22:31;;;;;;;10.38;1.20;;;6.10;87.50;;;;;;2087456;28;20033;-89
2022/01/30 05:23:32;;;;;;;8.73;1.45;;;6.00;87.40;;;;;;2097845;28;20044;-90
2022/01/30 05:24:33;;;;;;;7.50;1.42;;;6.00;87.30;;;;;;2086819;28;20040;-90
2022/01/30 05:25:34;;;;;;;10.52;1.35;;;6.00;87.40;;;;;;2081811;28;20068;-90
2022/01/30 05:26:40;;;;;;;7.68;1.25;;;6.00;87.30;;;;;;2081704;28;20435;-90
2022/01/30 05:27:41;;;;;;;8.60;1.33;;;6.10;87.40;;;;;;2089207;28;20033;-90
2022/01/30 05:28:42;;;;;;;10.07;1.88;;;6.00;87.20;;;;;;2081690;28;20045;-89
2022/01/30 05:29:43;;;;;;;4.45;0.95;;;6.10;87.30;;;;;;2081706;28;20508;-89
2022/01/30 05:30:44;;;;;;;7.60;1.65;;;6.10;87.20;;;;;;2081520;28;20041;-90
2022/01/30 05:31:45;;;;;;;9.73;1.42;;;6.10;87.20;;;;;;2081404;28;20030;-90
2022/01/30 05:32:46;;;;;;;8.93;1.45;;;6.10;87.30;;;;;;2073131;28;20726;-90
2022/01/30 05:33:47;;;;;;;5.07;1.45;;;6.10;87.20;;;;;;2081952;28;20084;-89
2022/01/30 05:34:48;;;;;;;6.45;1.27;;;6.10;87.20;;;;;;2081740;28;20087;-90
2022/01/30 05:35:49;;;;;;;6.43;1.02;;;6.00;87.20;;;;;;2069022;28;20039;-90
2022/01/30 05:36:51;;;;;;;7.35;1.35;;;6.10;87.30;;;;;;2081767;28;20084;-90
2022/01/30 05:37:54;;;;;;;5.97;1.15;;;6.10;88.00;;;;;;2080790;28;20044;-90
2022/01/30 05:38:55;;;;;;;4.53;1.20;;;6.10;87.50;;;;;;2089141;28;20124;-89
2022/01/30 05:39:56;;;;;;;5.15;1.20;;;6.00;87.40;;;;;;2088725;28;20043;-90
2022/01/30 05:40:56;;;;;;;6.88;1.20;;;6.00;87.40;;;;;;2088802;28;20422;-90
2022/01/30 05:41:57;;;;;;;6.05;1.25;;;6.00;87.50;;;;;;2089789;28;20106;-90
2022/01/30 05:42:58;;;;;;;6.72;1.20;;;6.00;87.60;;;;;;2070500;28;20045;-90
2022/01/30 05:44:09;;;;;;;4.82;1.00;;;6.00;87.60;;;;;;2083687;28;20508;-90
2022/01/30 05:45:17;;;;;;;6.25;1.15;;;5.90;87.70;;;;;;2086252;28;20041;-90
2022/01/30 05:46:30;;;;;;;7.30;1.33;;;5.90;87.80;;;;;;2076596;28;20624;-89
2022/01/30 05:47:38;;;;;;;7.30;1.10;;;5.90;87.80;;;;;;2088079;28;20037;-90
2022/01/30 05:48:39;;;;;;;6.65;1.05;;;5.90;87.80;;;;;;2082478;28;20037;-90
2022/01/30 05:49:40;;;;;;;6.57;1.30;;;5.90;87.90;;;;;;2082530;28;20033;-90
2022/01/30 05:50:42;;;;;;;6.07;1.33;;;5.80;88.00;;;;;;2084611;28;20491;-89
2022/01/30 05:51:43;;;;;;;6.85;1.25;;;5.80;88.00;;;;;;2094025;28;20099;-90
2022/01/30 05:52:44;;;;;;;5.32;0.95;;;5.80;88.00;;;;;;2094140;28;20028;-90
2022/01/30 05:53:45;;;;;;;8.13;1.20;;;5.80;88.10;;;;;;2089855;28;20499;-90
2022/01/30 05:54:45;;;;;;;5.43;1.10;;;5.80;88.20;;;;;;2075938;28;20037;-90
2022/01/30 05:55:46;;;;;;;5.68;1.10;;;5.80;88.20;;;;;;2081555;28;20150;-90
2022/01/30 05:56:46;;;;;;;6.10;1.00;;;5.80;88.20;;;;;;2081648;28;20033;-90
2022/01/30 05:57:48;;;;;;;4.85;1.10;;;5.80;88.20;;;;;;2085129;28;20161;-90
2022/01/30 05:58:48;;;;;;;5.75;1.10;;;5.80;88.20;;;;;;2089293;28;20048;-90
2022/01/30 05:59:49;;;;;;;5.72;1.13;;;5.80;88.20;;;;;;2081291;28;20061;-89
2022/01/30 06:00:49;;;;;;;6.35;1.23;;;5.80;88.20;;;;;;2068710;28;20069;-90
2022/01/30 06:01:50;;;;;;;6.38;1.25;;;5.80;88.20;;;;;;2064710;28;20038;-90
2022/01/30 06:02:51;;;;;;;6.15;1.17;;;5.80;88.20;;;;;;2081088;28;20098;-90
2022/01/30 06:03:51;;;;;;;4.15;0.98;;;5.80;88.20;;;;;;2089652;28;20033;-90
2022/01/30 06:04:52;;;;;;;7.90;1.30;;;5.80;88.20;;;;;;2082013;28;20564;-90
2022/01/30 06:05:53;;;;;;;4.97;1.00;;;5.90;88.20;;;;;;2076977;28;20042;-90
2022/01/30 06:06:55;;;;;;;6.72;1.10;;;5.80;88.20;;;;;;2084055;28;20037;-90
2022/01/30 06:07:57;;;;;;;11.05;1.60;;;5.80;88.20;;;;;;2077244;28;20038;-89
2022/01/30 06:09:18;;;;;;;10.55;1.90;;;5.90;88.10;;;;;;2089128;28;20053;-89
2022/01/30 06:10:21;;;;;;;8.52;1.73;;;5.90;87.90;;;;;;2089024;28;20513;-89
2022/01/30 06:11:21;;;;;;;11.20;1.73;;;5.90;87.90;;;;;;2084975;28;20426;-90
2022/01/30 06:12:22;;;;;;;7.30;1.30;;;5.90;87.90;;;;;;2088684;28;20048;-89
2022/01/30 06:13:22;;;;;;;7.32;1.25;;;5.90;87.90;;;;;;2086635;28;20044;-90
2022/01/30 06:14:23;;;;;;;10.20;1.58;;;5.90;87.90;;;;;;2069806;28;20038;-90
2022/01/30 06:15:24;;;;;;;12.75;1.98;;;5.90;87.90;;;;;;2081151;28;20470;-90
2022/01/30 06:16:25;;;;;;;9.40;1.60;;;6.00;87.90;;;;;;2088866;28;20041;-89
2022/01/30 06:17:25;;;;;;;8.23;1.67;;;5.90;87.90;;;;;;2098001;28;20037;-90
2022/01/30 06:18:26;;;;;;;10.25;1.95;;;6.00;88.00;;;;;;2097085;28;20083;-90
2022/01/30 06:19:27;;;;;;;7.60;1.65;;;6.00;88.00;;;;;;2087134;28;20487;-90
2022/01/30 06:20:28;;;;;;;6.60;1.50;;;6.00;88.00;;;;;;2095435;28;20040;-89
2022/01/30 06:21:28;;;;;;;11.55;1.75;;;6.00;88.00;;;;;;2081308;28;20037;-90
2022/01/30 06:22:29;;;;;;;11.63;2.05;;;6.00;88.00;;;;;;2089295;28;20114;-90